Home > Products > Valid Products > TAF

000
FTUS44 KLIX 021100 RRA
TAFNEW
TAF
KNEW 021150Z 0212/0312 14003KT P6SM VCSH SKC
     FM021600 16007KT P6SM VCSH SCT025 BKN035
      TEMPO 0216/0220 VRB15KT 2SM TSRA BKN020CB
     FM030000 16007KT P6SM VCSH BKN025
     FM030600 19009KT 5SM SHRA SCT020 BKN100
      TEMPO 0310/0312 VRB15G25KT 1SM TSRA BR BKN015CB OVC030=



000
FTUS44 KLIX 021100 RRA
TAFNEW
TAF
KNEW 021150Z 0212/0312 14003KT P6SM VCSH SKC
     FM021600 16007KT P6SM VCSH SCT025 BKN035
      TEMPO 0216/0220 VRB15KT 2SM TSRA BKN020CB
     FM030000 16007KT P6SM VCSH BKN025
     FM030600 19009KT 5SM SHRA SCT020 BKN100
      TEMPO 0310/0312 VRB15G25KT 1SM TSRA BR BKN015CB OVC030=



000
FTUS44 KLIX 021100 RRA
TAFGPT
TAF
KGPT 021150Z 0212/0312 16004KT P6SM VCSH FEW015 SCT040
     FM021700 16008KT P6SM VCSH BKN040
      TEMPO 0219/0223 VRB15KT 2SM TSRA BKN020CB
     FM030100 16008KT P6SM VCSH BKN025
      TEMPO 0310/0312 VRB15G25KT 1/2SM TSRA FG BKN015CB OVC030=



000
FTUS44 KLIX 021100 RRA
TAFBTR
TAF
KBTR 021150Z 0212/0312 12003KT P6SM VCSH BKN004 BKN011
      TEMPO 0212/0214 SCT004 SCT011 BKN030
     FM021400 16005KT P6SM VCSH SCT020 BKN030 BKN090
     FM021800 19008KT P6SM VCSH SCT025 BKN035
      TEMPO 0218/0222 VRB15KT 2SM TSRA BKN020CB
     FM030100 17010KT P6SM VCSH SCT020 BKN090
     FM030600 19009KT P6SM VCSH SCT020 BKN100
      TEMPO 0308/0312 VRB15G25KT 1SM TSRA BR BKN015CB OVC030=



000
FTUS44 KLIX 021100 RRA
TAFMCB
TAF
KMCB 021150Z 0212/0312 18004KT P6SM BKN007 OVC012
     FM021500 17005KT P6SM VCSH SCT025 BKN040
     FM021700 19007KT P6SM SCT030 BKN040
      TEMPO 0217/0221 VRB15KT 2SM TSRA BKN015CB OVC030
     FM030000 16004KT 3SM -SHRA OVC090
      TEMPO 0308/0312 VRB15G25KT 1/2SM TSRA FG BKN015CB OVC030=



000
FTUS44 KLIX 021100 RRA
TAFMSY
TAF
KMSY 021150Z 0212/0312 13004KT P6SM VCSH FEW009 FEW030 SCT250
     FM021700 16008KT P6SM VCTS SCT025 BKN035CB
     FM030000 16007KT P6SM VCSH BKN025
     FM030600 19009KT 5SM SHRA SCT020 BKN100
      TEMPO 0310/0312 VRB15G25KT 1SM TSRA BR BKN015CB OVC030=



000
FTUS44 KLIX 020500
TAFNEW
TAF
KNEW 020528Z 0206/0306 14006KT P6SM BKN035
     FM021200 15005KT P6SM VCSH SCT020 BKN035
     FM021700 16007KT P6SM VCTS SCT025 BKN035CB
     FM030000 15008KT P6SM VCSH BKN025=



000
FTUS44 KLIX 020500
TAFNEW
TAF
KNEW 020528Z 0206/0306 14006KT P6SM BKN035
     FM021200 15005KT P6SM VCSH SCT020 BKN035
     FM021700 16007KT P6SM VCTS SCT025 BKN035CB
     FM030000 15008KT P6SM VCSH BKN025=



000
FTUS44 KLIX 020500
TAFMSY
TAF
KMSY 020528Z 0206/0306 14005KT P6SM SCT015 BKN035
     FM021100 15004KT P6SM VCSH BKN025
     FM021700 16008KT P6SM VCTS SCT025 BKN035CB
     FM030000 16007KT P6SM VCSH BKN025=



000
FTUS44 KLIX 020500
TAFGPT
TAF
KGPT 020528Z 0206/0306 14005KT P6SM SCT035
     FM020900 14005KT P6SM BKN035
     FM021200 13004KT P6SM VCSH SCT020 BKN040
     FM021900 16008KT P6SM VCTS BKN040CB
     FM030100 16008KT P6SM VCSH BKN025=



000
FTUS44 KLIX 020500
TAFMCB
TAF
KMCB 020528Z 0206/0306 VRB03KT P6SM BKN003
     FM021500 17005KT P6SM VCSH SCT025 BKN040
     FM021900 19007KT P6SM VCTS SCT030 BKN040CB
     FM030000 16004KT 3SM -SHRA OVC090=



000
FTUS44 KLIX 020500
TAFBTR
TAF
KBTR 020528Z 0206/0306 13004KT P6SM BKN012
     FM021200 VRB03KT P6SM VCSH BKN008
     FM021400 16005KT P6SM VCSH SCT020 BKN090
     FM021800 19008KT P6SM VCTS SCT025 BKN035CB=



000
FTUS44 KLIX 012300 RRA
TAFGPT
TAF
KGPT 012340Z 0200/0224 13007KT P6SM SCT030 BKN250
     FM021200 13004KT P6SM VCSH SCT020 BKN050
     FM021900 16008KT P6SM VCTS SCT025 BKN040CB=



000
FTUS44 KLIX 012300 RRA
TAFMSY
TAF
KMSY 012340Z 0200/0224 13004KT P6SM SCT020 SCT090 BKN250
     FM021200 15004KT P6SM VCSH SCT020 BKN050
     FM021700 16008KT P6SM VCTS SCT025 BKN035CB=



000
FTUS44 KLIX 012300 RRA
TAFNEW
TAF
KNEW 012340Z 0200/0224 14011KT P6SM FEW020 SCT040 BKN250
     FM021200 15005KT P6SM VCSH SCT025 BKN050
     FM021800 16007KT P6SM VCTS SCT025 BKN035CB=



000
FTUS44 KLIX 012300 RRA
TAFBTR
TAF
KBTR 012340Z 0200/0224 13006KT P6SM BKN035
     FM021200 VRB03KT P6SM VCSH SCT020 BKN080
     FM021600 18007KT P6SM VCTS SCT025 BKN040CB=



000
FTUS44 KLIX 012300 RRA
TAFMCB
TAF
KMCB 012340Z 0200/0224 15006KT P6SM SCT045
     FM020600 VRB03KT 4SM BR BKN009
     FM021000 00000KT 2SM BR BKN005
     FM021400 18007KT P6SM VCSH SCT020 BKN050
     FM021900 19007KT P6SM VCTS SCT025 BKN040CB=



000
FTUS44 KLIX 012300 RRA
TAFNEW
TAF
KNEW 012340Z 0200/0224 14011KT P6SM FEW020 SCT040 BKN250
     FM021200 15005KT P6SM VCSH SCT025 BKN050
     FM021800 16007KT P6SM VCTS SCT025 BKN035CB=



000
FTUS44 KLIX 012200 AAA
TAFBTR
TAF AMD
KBTR 012225Z 0122/0218 13007KT P6SM BKN022 OVC060
      TEMPO 0123/0201 6SM -SHRA
     FM020200 14004KT P6SM SCT008 BKN015
      TEMPO 0210/0214 5SM BR
     FM021500 17006KT P6SM BKN020=



000
FTUS44 KLIX 011700 RRA
TAFMSY
TAF
KMSY 011741Z 0118/0218 15009KT P6SM VCSH FEW015 SCT030
     FM020300 15005KT P6SM BKN035
     FM021400 15005KT P6SM BKN030=



000
FTUS44 KLIX 011700 RRA
TAFMCB
TAF
KMCB 011741Z 0118/0218 15009KT P6SM VCSH SCT030
     FM020400 VRB03KT P6SM BKN035
      TEMPO 0210/0214 5SM BR
     FM021500 17005KT P6SM VCTS BKN020CB=



000
FTUS44 KLIX 011700 RRA
TAFGPT
TAF
KGPT 011741Z 0118/0218 13007KT P6SM VCSH SCT020
     FM020000 15006KT P6SM BKN035
     FM021500 16007KT P6SM BKN030=



000
FTUS44 KLIX 011700 RRA
TAFNEW
TAF
KNEW 011741Z 0118/0218 18009KT P6SM VCSH FEW014 BKN035
     FM020300 14007KT P6SM BKN035
     FM021500 15008KT P6SM BKN035=



000
FTUS44 KLIX 011700 RRA
TAFBTR
TAF
KBTR 011741Z 0118/0218 11006KT P6SM VCSH BKN011 OVC050
     FM012300 15005KT P6SM BKN035
     FM020300 14004KT P6SM SCT008 BKN015
      TEMPO 0210/0214 5SM BR
     FM021500 17006KT P6SM BKN020=



000
FTUS44 KLIX 011700 RRA
TAFNEW
TAF
KNEW 011741Z 0118/0218 18009KT P6SM VCSH FEW014 BKN035
     FM020300 14007KT P6SM BKN035
     FM021500 15008KT P6SM BKN035=



000
FTUS44 KLIX 011500 AAA
TAFBTR
TAF AMD
KBTR 011512Z 0115/0212 09007KT P6SM SCT008 BKN014 BKN110
      TEMPO 0116/0120 VRB06KT 3SM -RA BKN025
     FM020100 13005KT P6SM VCSH BKN030=



000
FTUS44 KLIX 011200 AAA
TAFMCB
TAF AMD
KMCB 011221Z 0112/0212 00000KT 2SM BR SCT002
      TEMPO 0112/0114 1/4SM FG VV002
     FM011400 00000KT P6SM BKN100
     FM011800 16006KT P6SM BKN050
     FM020100 16004KT P6SM BKN030=



000
FTUS44 KLIX 011100 RRA
TAFMSY
TAF
KMSY 011140Z 0112/0212 09004KT P6SM FEW025 SCT250
     FM011500 12005KT P6SM SCT030 BKN090
      TEMPO 0117/0121 VRB15KT 2SM TSRA BR BKN025CB
     FM020100 15005KT P6SM VCSH BKN030=



000
FTUS44 KLIX 011100 RRA
TAFGPT
TAF
KGPT 011140Z 0112/0212 00000KT P6SM SKC
     FM011300 05004KT P6SM FEW020 BKN110
     FM011600 11006KT P6SM SCT030 BKN110
     FM020100 13005KT P6SM SCT030=



000
FTUS44 KLIX 011100 RRA
TAFBTR
TAF
KBTR 011140Z 0112/0212 05004KT 6SM BR FEW120
     FM011500 15007KT P6SM SCT030 BKN080
      TEMPO 0117/0121 VRB15KT 2SM TSRA BR BKN025CB
     FM020100 13005KT P6SM VCSH BKN030=



000
FTUS44 KLIX 011100 RRA
TAFNEW
TAF
KNEW 011140Z 0112/0212 11004KT P6SM SKC
     FM011500 13009KT P6SM SCT030 BKN090
      TEMPO 0117/0121 VRB15KT 2SM TSRA BR BKN025CB
     FM020100 15005KT P6SM VCSH BKN030=



000
FTUS44 KLIX 011100 RRA
TAFNEW
TAF
KNEW 011140Z 0112/0212 11004KT P6SM SKC
     FM011500 13009KT P6SM SCT030 BKN090
      TEMPO 0117/0121 VRB15KT 2SM TSRA BR BKN025CB
     FM020100 15005KT P6SM VCSH BKN030=



000
FTUS44 KLIX 011100 RRA
TAFMCB
TAF
KMCB 011140Z 0112/0212 00000KT 3/4SM BR VV002
     FM011300 00000KT P6SM BKN100
     FM011800 16006KT P6SM BKN050
     FM020100 16004KT P6SM BKN030=



000
FTUS44 KLIX 010800 AAA
TAFMCB
TAF AMD
KMCB 010804Z 0108/0206 00000KT 5SM BR FEW003 SCT250
      TEMPO 0108/0112 1/2SM FG OVC002
     FM011300 00000KT P6SM BKN100
     FM011800 16006KT P6SM BKN050 PROB30 0118/0124 3SM TSRA
      BKN030CB=



000
FTUS44 KLIX 010500
TAFBTR
TAF
KBTR 010521Z 0106/0206 11003KT P6SM SCT100
     FM011500 15007KT P6SM SCT030 BKN080 PROB30 0115/0121 3SM TSRA
      BKN030CB=



000
FTUS44 KLIX 010500
TAFMSY
TAF
KMSY 010521Z 0106/0206 13004KT P6SM FEW020 SCT110
     FM011500 12005KT P6SM SCT030 BKN090 PROB30 0115/0121 3SM TSRA
      BKN030CB=



000
FTUS44 KLIX 010500
TAFNEW
TAF
KNEW 010521Z 0106/0206 14004KT P6SM SCT250
     FM011500 13009KT P6SM SCT030 BKN090 PROB30 0115/0121 3SM TSRA
      BKN030CB=



000
FTUS44 KLIX 010500
TAFMCB
TAF
KMCB 010521Z 0106/0206 00000KT P6SM SCT250
     FM011100 00000KT P6SM BKN100
     FM011800 16006KT P6SM BKN050 PROB30 0118/0124 3SM TSRA
      BKN030CB=



000
FTUS44 KLIX 010500
TAFNEW
TAF
KNEW 010521Z 0106/0206 14004KT P6SM SCT250
     FM011500 13009KT P6SM SCT030 BKN090 PROB30 0115/0121 3SM TSRA
      BKN030CB=



000
FTUS44 KLIX 010500
TAFGPT
TAF
KGPT 010521Z 0106/0206 16004KT P6SM SCT250
     FM011300 05004KT P6SM FEW020 BKN110
     FM011600 11006KT P6SM SCT030 BKN110=



000
FTUS44 KLIX 302300
TAFNEW
TAF
KNEW 302336Z 0100/0124 15006KT P6SM FEW030
     FM011500 12006KT P6SM VCSH SCT025 BKN100
     FM011800 12007KT P6SM VCTS BKN030CB=



000
FTUS44 KLIX 302300
TAFMCB
TAF
KMCB 302336Z 0100/0124 00000KT P6SM FEW050
     FM011100 00000KT P6SM BKN050
     FM011800 16006KT P6SM VCSH BKN040=



000
FTUS44 KLIX 302300
TAFGPT
TAF
KGPT 302336Z 0100/0124 15003KT P6SM FEW040
     FM011300 05004KT P6SM FEW020 BKN120
     FM011600 11006KT P6SM SCT025 BKN110=



000
FTUS44 KLIX 302300
TAFNEW
TAF
KNEW 302336Z 0100/0124 15006KT P6SM FEW030
     FM011500 12006KT P6SM VCSH SCT025 BKN100
     FM011800 12007KT P6SM VCTS BKN030CB=



000
FTUS44 KLIX 302300
TAFMSY
TAF
KMSY 302336Z 0100/0124 15005KT P6SM FEW030
     FM011100 11004KT P6SM SCT020 BKN110
     FM011500 12005KT P6SM VCSH SCT025 BKN100
     FM011800 13006KT P6SM VCTS BKN025CB=



000
FTUS44 KLIX 302300
TAFBTR
TAF
KBTR 302336Z 0100/0124 12004KT P6SM FEW040 SCT060
     FM011500 13005KT P6SM VCSH BKN040
     FM012200 16006KT P6SM VCTS BKN025CB=



000
FTUS44 KLIX 302100 AAB
TAFNEW
TAF AMD
KNEW 302123Z 3021/0118 10007KT P6SM FEW030
     FM010100 15005KT P6SM SKC
     FM011500 12006KT P6SM BKN025=



000
FTUS44 KLIX 302100 AAB
TAFNEW
TAF AMD
KNEW 302123Z 3021/0118 10007KT P6SM FEW030
     FM010100 15005KT P6SM SKC
     FM011500 12006KT P6SM BKN025=



000
FTUS44 KLIX 302000 AAA
TAFMSY
TAF AMD
KMSY 302050Z 3021/0118 04010KT P6SM FEW030
     FM010000 09002KT P6SM SCT025
     FM010900 00000KT 5SM BR SCT004
      TEMPO 0109/0112 BKN010
     FM011500 17003KT 5SM BR SCT005 BKN015=



000
FTUS44 KLIX 301800 AAA
TAFNEW
TAF AMD
KNEW 301836Z 3019/0118 03008KT P6SM BKN026
     FM010100 16004KT P6SM SKC
     FM011500 12006KT P6SM BKN025=



000
FTUS44 KLIX 301800 AAA
TAFNEW
TAF AMD
KNEW 301836Z 3019/0118 03008KT P6SM BKN026
     FM010100 16004KT P6SM SKC
     FM011500 12006KT P6SM BKN025=



000
FTUS44 KLIX 301700 CCA
TAFBTR
TAF COR
KBTR 301759Z 3018/0118 12003KT P6SM BKN040
     FM010000 13005KT P6SM SCT040
     FM010900 00000KT 6SM BR BKN008
     FM011200 08002KT 4SM BR OVC007
     FM011500 12004KT P6SM SCT007 SCT030=



000
FTUS44 KLIX 301700
TAFMCB
TAF
KMCB 301734Z 3018/0118 08007KT P6SM FEW035 SCT050
     FM010000 09002KT P6SM SCT025
     FM010900 00000KT 4SM BR BKN004
      TEMPO 0109/0112 2SM BR
     FM011500 17003KT 5SM BR SCT005 BKN015=



000
FTUS44 KLIX 301700
TAFGPT
TAF
KGPT 301734Z 3018/0118 14009KT P6SM BKN023 BKN028 OVC035
     FM302100 15007KT P6SM SCT023 BKN035
     FM010300 00000KT P6SM SCT030
     FM010600 00000KT 5SM BR BKN005
     FM011500 11004KT P6SM SCT005 SCT050=



000
FTUS44 KLIX 301700
TAFMSY
TAF
KMSY 301734Z 3018/0118 06007KT P6SM SCT022
      TEMPO 3018/3021 BKN020
     FM010000 09002KT P6SM SCT025
     FM010900 00000KT 5SM BR SCT004
      TEMPO 0109/0112 BKN010
     FM011500 17003KT 5SM BR SCT005 BKN015=



000
FTUS44 KLIX 301700
TAFBTR
TAF
KBTR 301734Z 3018/0118 00000KT P6SM BKN030
     FM010000 13005KT P6SM SCT030
     FM010900 00000KT 6SM BR BKN008
     FM011200 08002KT 4SM BR OVC007
     FM011500 12004KT P6SM SCT007 SCT030=



000
FTUS44 KLIX 301600 AAD
TAFMSY
TAF AMD
KMSY 301602Z 3016/0112 06005KT P6SM FEW019 SCT029
     FM301800 06006KT P6SM SCT020 SCT035
     FM302300 VRB03KT P6SM SCT040=



000
FTUS44 KLIX 301600 AAB
TAFMSY
TAF AMD
KMSY 301600Z 3016/0112 05007KT P6SM FEW021 BKN029
     FM301800 06006KT P6SM SCT020 SCT035
     FM302300 VRB03KT P6SM SCT040=



000
FTUS44 KLIX 301600 AAC
TAFMSY
TAF AMD
KMSY 301600Z 3016/0112 06005KT P6SM FEW019 SCT029
     FM301800 06006KT P6SM SCT020 SCT035
     FM302300 VRB03KT P6SM SCT040=



000
FTUS44 KLIX 301500 AAA
TAFGPT
TAF AMD
KGPT 301556Z 3016/0112 14007KT P6SM BKN023
     FM301900 15007KT P6SM FEW040 SCT080
     FM302300 18002KT P6SM SCT030=



000
FTUS44 KLIX 301500 AAA
TAFMSY
TAF AMD
KMSY 301509Z 3015/0112 10004KT P6SM BKN019
     FM301800 06006KT P6SM SCT020 SCT035
     FM302300 VRB03KT P6SM SCT040=



000
FTUS44 KLIX 301100 RRA
TAFMCB
TAF
KMCB 301139Z 3012/0112 00000KT P6SM SKC
     FM301400 09004KT P6SM SCT050
     FM302300 00000KT P6SM SCT040
      TEMPO 0109/0112 3SM BR=



000
FTUS44 KLIX 301100 RRA
TAFBTR
TAF
KBTR 301139Z 3012/0112 04003KT P6SM SKC
      TEMPO 3012/3013 4SM BR
     FM301500 10005KT P6SM SCT040
     FM302300 15003KT P6SM SCT035
      TEMPO 0109/0112 4SM BR=



000
FTUS44 KLIX 301100 RRA
TAFNEW
TAF
KNEW 301139Z 3012/0112 04008KT P6SM SKC
     FM301700 05007KT P6SM BKN035
     FM010100 16004KT P6SM SKC=



000
FTUS44 KLIX 301100 RRA
TAFNEW
TAF
KNEW 301139Z 3012/0112 04008KT P6SM SKC
     FM301700 05007KT P6SM BKN035
     FM010100 16004KT P6SM SKC=



000
FTUS44 KLIX 301100 RRA
TAFGPT
TAF
KGPT 301139Z 3012/0112 00000KT P6SM SKC
     FM301900 15007KT P6SM FEW040 SCT080
     FM302300 18002KT P6SM SCT030=



000
FTUS44 KLIX 301100 RRA
TAFMSY
TAF
KMSY 301139Z 3012/0112 05004KT P6SM FEW250
     FM301700 06006KT P6SM SCT035
     FM302300 VRB03KT P6SM SCT040=



000
FTUS44 KLIX 300500
TAFMCB
TAF
KMCB 300526Z 3006/0106 00000KT P6SM FEW040
     FM301000 00000KT 4SM BR FEW050 SCT090
     FM301400 09004KT P6SM SCT050=



000
FTUS44 KLIX 300500
TAFMSY
TAF
KMSY 300526Z 3006/0106 04003KT P6SM FEW070 SCT250
     FM301700 06006KT P6SM BKN035=



000
FTUS44 KLIX 300500
TAFGPT
TAF
KGPT 300526Z 3006/0106 05004KT P6SM SCT035
     FM301900 15007KT P6SM FEW040 SCT080=



000
FTUS44 KLIX 300500
TAFBTR
TAF
KBTR 300526Z 3006/0106 00000KT P6SM SKC
     FM300900 00000KT 6SM BR SCT050
      TEMPO 3009/3013 4SM BR
     FM301500 10005KT P6SM SCT040=



000
FTUS44 KLIX 300500
TAFNEW
TAF
KNEW 300526Z 3006/0106 05006KT P6SM SCT035
     FM301700 05007KT P6SM BKN035=



000
FTUS44 KLIX 292300
TAFGPT
TAF
KGPT 292338Z 3000/3024 03003KT P6SM FEW030 SCT070
     FM301900 11007KT P6SM FEW040 SCT080=



000
FTUS44 KLIX 292300
TAFBTR
TAF
KBTR 292338Z 3000/3024 VRB03KT P6SM FEW035 SCT070
     FM300900 00000KT 6SM BR SCT050
      TEMPO 3009/3013 4SM BR
     FM301400 07004KT P6SM SCT040=



000
FTUS44 KLIX 292300
TAFNEW
TAF
KNEW 292338Z 3000/3024 36005KT P6SM FEW030 SCT070
     FM300600 05006KT P6SM SCT035
     FM301700 05007KT P6SM BKN035=



000
FTUS44 KLIX 292300
TAFMSY
TAF
KMSY 292338Z 3000/3024 01003KT P6SM FEW030 SCT070
     FM301700 06006KT P6SM BKN035=



000
FTUS44 KLIX 292300
TAFMCB
TAF
KMCB 292338Z 3000/3024 00000KT P6SM SCT050
     FM300700 00000KT 4SM BR FEW050 SCT090
     FM301400 09003KT P6SM SCT050=



000
FTUS44 KLIX 292300
TAFNEW
TAF
KNEW 292338Z 3000/3024 36005KT P6SM FEW030 SCT070
     FM300600 05006KT P6SM SCT035
     FM301700 05007KT P6SM BKN035=



000
FTUS44 KLIX 292000 AAA
TAFMCB
TAF AMD
KMCB 292013Z 2920/3018 07006KT P6SM SCT030
      TEMPO 2920/2924 BKN030
     FM300200 00000KT P6SM SCT020 BKN250
     FM300900 00000KT 4SM BR BKN015
      TEMPO 3009/3013 2SM BR
     FM301500 VRB03KT P6SM SCT015 BKN250=



000
FTUS44 KLIX 292000 AAA
TAFGPT
TAF AMD
KGPT 292012Z 2920/3018 03008KT P6SM SCT025 SCT050
      TEMPO 2920/2924 BKN025
     FM300200 00000KT P6SM SCT025
     FM300700 04003KT P6SM SCT015 SCT080
      TEMPO 3010/3013 5SM BR BKN015
     FM301400 05006KT P6SM SCT035=



000
FTUS44 KLIX 291700
TAFMCB
TAF
KMCB 291738Z 2918/3018 03005KT P6SM BKN025
     FM292300 02005KT P6SM BKN040
     FM300200 00000KT P6SM SCT020 BKN250
     FM300900 00000KT 4SM BR BKN015
      TEMPO 3009/3013 2SM BR
     FM301500 VRB03KT P6SM SCT015 BKN250=



000
FTUS44 KLIX 291700
TAFMSY
TAF
KMSY 291738Z 2918/3018 08007KT P6SM OVC015
     FM292000 05007KT P6SM BKN030
     FM300100 00000KT P6SM SCT030 BKN250
     FM300900 00000KT P6SM SCT015 SCT250
      TEMPO 3010/3012 5SM BR=



000
FTUS44 KLIX 291700
TAFNEW
TAF
KNEW 291738Z 2918/3018 04007KT P6SM OVC012
     FM292100 05007KT P6SM BKN030
     FM300100 00000KT P6SM SCT025 BKN250
     FM300900 00000KT P6SM SCT015 SCT250
      TEMPO 3010/3012 4SM BR
     FM301500 05003KT P6SM SCT035 SCT250=



000
FTUS44 KLIX 291700
TAFNEW
TAF
KNEW 291738Z 2918/3018 04007KT P6SM OVC012
     FM292100 05007KT P6SM BKN030
     FM300100 00000KT P6SM SCT025 BKN250
     FM300900 00000KT P6SM SCT015 SCT250
      TEMPO 3010/3012 4SM BR
     FM301500 05003KT P6SM SCT035 SCT250=



000
FTUS44 KLIX 291700
TAFBTR
TAF
KBTR 291738Z 2918/3018 05009KT P6SM SCT020 SCT035
      TEMPO 2918/2921 BKN035
     FM300200 00000KT P6SM SCT025 SCT250
     FM300800 00000KT 5SM BR SCT250
     FM301400 VRB03KT P6SM SCT250=



000
FTUS44 KLIX 291700
TAFGPT
TAF
KGPT 291738Z 2918/3018 02007KT P6SM BKN012
     FM292100 03007KT P6SM BKN025
     FM300200 00000KT P6SM SCT025 BKN080
     FM300700 04003KT P6SM SCT015 SCT080
      TEMPO 3010/3013 5SM BR BKN015
     FM301400 05006KT P6SM SCT035=



000
FTUS44 KLIX 291300 AAA
TAFNEW
TAF AMD
KNEW 291359Z 2914/3012 06009KT P6SM OVC010
     FM291600 05009KT P6SM BKN025
     FM300800 06006KT P6SM BKN020
     FM301000 07006KT P6SM BKN010=



000
FTUS44 KLIX 291300 AAA
TAFNEW
TAF AMD
KNEW 291359Z 2914/3012 06009KT P6SM OVC010
     FM291600 05009KT P6SM BKN025
     FM300800 06006KT P6SM BKN020
     FM301000 07006KT P6SM BKN010=



000
FTUS44 KLIX 291300 AAA
TAFGPT
TAF AMD
KGPT 291358Z 2914/3012 05007KT P6SM OVC008
     FM291600 05008KT P6SM BKN020
     FM292100 06007KT P6SM BKN025
     FM300700 05004KT P6SM BKN010
      TEMPO 3010/3012 5SM BR=



000
FTUS44 KLIX 291300 AAA
TAFBTR
TAF AMD
KBTR 291358Z 2914/3012 07004KT P6SM OVC009
     FM291600 05006KT P6SM OVC020
     FM292000 05006KT P6SM BKN030
     FM300000 00000KT P6SM BKN025
     FM300800 00000KT 5SM BR BKN025=



    US Dept of Commerce
    National Oceanic and Atmospheric Administration
    National Weather Service
    1325 East West Highway
    Silver Spring, MD 20910
    Page Author: NWS Internet Services Team
Disclaimer
Information Quality
Credits
Glossary
Privacy Policy
Freedom of Information Act (FOIA)
About Us
Career Opportunities